Time;durP1;ratioP1;P1;durP2;ratioP2;P2;SDS_P1;SDS_P2;PMS_P1;PMS_P2;Temp;Humidity;BMP_temperature;BMP_pressure;BME280_temperature;BME280_humidity;BME280_pressure;Samples;Min_cycle;Max_cycle;Signal;HPM_P1;HPM_P2
2021/03/11 16:26:50;;;;;;;23.40;11.70;;;-1.90;63.70;;;;;;5071428;27;20383;-90
2021/03/11 16:29:16;;;;;;;25.35;13.65;;;-2.00;64.50;;;;;;5070929;28;20381;-94
2021/03/11 16:31:44;;;;;;;24.17;10.43;;;-2.00;64.70;;;;;;5070388;28;20039;-95
2021/03/11 16:34:11;;;;;;;30.63;15.65;;;-1.90;64.40;;;;;;5072589;28;20052;-94
2021/03/11 16:36:36;;;;;;;29.38;17.90;;;-1.80;64.60;;;;;;5079369;28;20032;-94
2021/03/11 16:39:03;;;;;;;25.40;13.30;;;-1.80;64.20;;;;;;5081915;28;20108;-94
2021/03/11 16:41:29;;;;;;;32.70;15.50;;;-1.70;63.90;;;;;;5072118;28;20495;-94
2021/03/11 16:43:55;;;;;;;40.80;22.67;;;-1.60;63.30;;;;;;5070010;28;20060;-92
2021/03/11 16:46:21;;;;;;;96.53;56.25;;;-1.60;63.20;;;;;;5069411;28;20041;-93
2021/03/11 16:48:48;;;;;;;101.03;64.70;;;-1.50;63.00;;;;;;5070584;28;20483;-96
2021/03/11 16:51:14;;;;;;;118.00;73.10;;;-1.50;62.60;;;;;;5069841;28;20035;-94
2021/03/11 16:53:48;;;;;;;58.70;34.17;;;-1.50;62.30;;;;;;5080705;28;20028;-96
2021/03/11 16:56:14;;;;;;;52.03;28.33;;;-1.40;62.00;;;;;;5074752;28;20029;-95
2021/03/11 16:58:40;;;;;;;51.78;23.23;;;-1.40;62.00;;;;;;5070201;28;20026;-95
2021/03/11 17:01:06;;;;;;;50.35;27.95;;;-1.40;61.70;;;;;;5073252;28;20035;-95
2021/03/11 17:03:31;;;;;;;56.40;30.33;;;-1.40;61.60;;;;;;5072858;28;20028;-95
2021/03/11 17:05:57;;;;;;;49.60;27.88;;;-1.30;61.30;;;;;;5073520;28;20074;-95
2021/03/11 17:08:23;;;;;;;52.00;26.65;;;-1.30;61.20;;;;;;5071674;28;20064;-94
2021/03/11 17:10:49;;;;;;;47.92;24.63;;;-1.30;60.80;;;;;;5072547;28;20025;-96
2021/03/11 17:13:15;;;;;;;35.85;21.77;;;-1.30;60.80;;;;;;5073555;28;20091;-94
2021/03/11 17:15:41;;;;;;;34.33;21.95;;;-1.30;61.00;;;;;;5073588;28;20140;-96
2021/03/11 17:18:09;;;;;;;37.58;21.02;;;-1.30;60.80;;;;;;5072792;28;20104;-94
2021/03/11 17:20:37;;;;;;;33.03;19.20;;;-1.30;60.40;;;;;;5067913;28;20080;-95
2021/03/11 17:23:03;;;;;;;34.30;19.50;;;-1.30;60.60;;;;;;5056594;28;20047;-94
2021/03/11 17:25:31;;;;;;;33.47;18.60;;;-1.40;60.80;;;;;;5064530;28;20057;-95
2021/03/11 17:27:57;;;;;;;39.30;19.73;;;-1.40;61.10;;;;;;5061157;28;20029;-96
2021/03/11 17:30:35;;;;;;;39.50;19.88;;;-1.40;61.30;;;;;;5053102;28;20033;-95
2021/03/11 17:33:08;;;;;;;38.15;20.00;;;-1.40;61.40;;;;;;5068091;28;20029;-94
2021/03/11 17:35:37;;;;;;;39.22;21.20;;;-1.40;61.70;;;;;;5079561;28;20115;-95
2021/03/11 17:38:03;;;;;;;41.83;23.27;;;-1.50;61.80;;;;;;5060515;28;20064;-95
2021/03/11 17:40:48;;;;;;;47.05;25.13;;;-1.50;61.80;;;;;;5059524;28;20025;-95
2021/03/11 17:43:15;;;;;;;58.92;27.23;;;-1.50;62.20;;;;;;5045881;28;20029;-95
2021/03/11 17:45:42;;;;;;;59.55;28.95;;;-1.60;62.40;;;;;;5057052;28;20522;-95
2021/03/11 17:48:11;;;;;;;61.90;27.05;;;-1.60;62.60;;;;;;5055978;28;20025;-94
2021/03/11 17:50:38;;;;;;;50.22;26.80;;;-1.60;62.80;;;;;;5054962;28;20486;-95
2021/03/11 17:53:04;;;;;;;51.80;25.08;;;-1.60;62.80;;;;;;5060628;28;20031;-94
2021/03/11 17:55:30;;;;;;;48.45;23.67;;;-1.70;62.80;;;;;;5061072;28;20473;-94
2021/03/11 17:57:56;;;;;;;46.47;24.65;;;-1.70;62.80;;;;;;5057655;28;20017;-92
2021/03/11 18:00:22;;;;;;;38.97;21.10;;;-1.70;62.90;;;;;;5052135;28;20031;-92
2021/03/11 18:02:48;;;;;;;51.50;25.90;;;-1.70;62.80;;;;;;5057298;28;20021;-94
2021/03/11 18:05:17;;;;;;;47.35;25.48;;;-1.70;62.80;;;;;;5053987;28;20497;-94
2021/03/11 18:07:43;;;;;;;44.15;22.25;;;-1.70;63.00;;;;;;5056239;28;20036;-94
2021/03/11 18:10:10;;;;;;;51.55;26.65;;;-1.80;63.20;;;;;;5060463;28;20029;-94
2021/03/11 18:12:55;;;;;;;;;;;;;;;;;;;;;
2021/03/11 18:15:33;;;;;;;52.45;24.50;;;-1.80;63.60;;;;;;5060956;28;20132;-92
2021/03/11 18:18:00;;;;;;;38.65;19.75;;;-1.80;63.90;;;;;;5059501;28;20017;-93
2021/03/11 18:20:27;;;;;;;34.80;17.88;;;-1.80;64.00;;;;;;5068079;28;20025;-94
2021/03/11 18:22:53;;;;;;;37.15;18.33;;;-1.80;64.30;;;;;;5055543;28;20051;-94
2021/03/11 18:25:18;;;;;;;40.45;18.85;;;-1.80;64.50;;;;;;5054622;28;20041;-92
2021/03/11 18:27:44;;;;;;;40.10;17.95;;;-1.80;64.70;;;;;;5056411;28;20021;-93
2021/03/11 18:30:11;;;;;;;39.70;19.02;;;-1.80;64.90;;;;;;5054883;28;20131;-93
2021/03/11 18:32:37;;;;;;;45.78;22.27;;;-1.90;65.30;;;;;;5055495;28;20025;-92
2021/03/11 18:35:07;;;;;;;48.30;22.83;;;-1.90;65.50;;;;;;5055327;28;20385;-93
2021/03/11 18:37:33;;;;;;;53.10;23.65;;;-1.90;65.70;;;;;;5056458;28;20032;-92
2021/03/11 18:39:59;;;;;;;52.78;23.55;;;-1.90;66.50;;;;;;5055474;28;20025;-93
2021/03/11 18:42:26;;;;;;;46.05;21.42;;;-2.00;67.00;;;;;;5054538;28;20025;-93
2021/03/11 18:44:51;;;;;;;49.28;24.00;;;-2.00;67.50;;;;;;5054829;28;20397;-93
2021/03/11 18:47:17;;;;;;;41.08;21.92;;;-2.00;67.60;;;;;;5054700;28;20021;-92
2021/03/11 18:49:43;;;;;;;53.25;23.10;;;-2.00;67.80;;;;;;5053993;28;20028;-94
2021/03/11 18:52:09;;;;;;;50.03;23.35;;;-2.10;68.30;;;;;;5055243;28;20055;-92
2021/03/11 18:54:38;;;;;;;44.78;22.52;;;-2.10;68.60;;;;;;5055637;28;20029;-94
2021/03/11 19:00:35;;;;;;;38.42;19.27;;;-2.10;68.80;;;;;;5060465;28;20163;-92
2021/03/11 19:03:02;;;;;;;36.63;17.42;;;-2.10;69.20;;;;;;5058950;28;20057;-92
2021/03/11 19:05:29;;;;;;;38.28;18.52;;;-2.10;69.00;;;;;;5054684;28;20025;-93
2021/03/11 19:07:55;;;;;;;36.58;18.50;;;-2.20;69.20;;;;;;5054507;28;20472;-93
2021/03/11 19:10:22;;;;;;;39.78;17.73;;;-2.20;69.10;;;;;;5054112;28;20024;-93
2021/03/11 19:12:49;;;;;;;32.55;17.25;;;-2.20;69.10;;;;;;5054400;28;20492;-93
2021/03/11 19:15:15;;;;;;;31.83;16.20;;;-2.20;69.30;;;;;;5054050;28;20029;-94
2021/03/11 19:17:44;;;;;;;29.58;15.20;;;-2.30;69.20;;;;;;5054102;28;20119;-94
2021/03/11 19:20:11;;;;;;;29.27;15.23;;;-2.30;69.90;;;;;;5053748;28;20021;-93
2021/03/11 19:22:37;;;;;;;27.50;13.57;;;-2.30;69.30;;;;;;5054195;28;20017;-94
2021/03/11 19:25:03;;;;;;;26.35;13.73;;;-2.30;69.30;;;;;;5054348;28;20071;-92
2021/03/11 19:27:29;;;;;;;30.65;15.93;;;-2.30;69.10;;;;;;5055327;28;20032;-93
2021/03/11 19:29:55;;;;;;;37.65;16.23;;;-2.30;68.90;;;;;;5055541;28;20029;-92
2021/03/11 19:32:20;;;;;;;44.13;19.48;;;-2.30;68.90;;;;;;5054228;28;20025;-94
